sensor_id;sensor_type;location;lat;lon;timestamp;P1;durP1;ratioP1;P2;durP2;ratioP2
8526;SDS011;4301;48.362;8.478;2022-09-09T00:00:23;2.07;;;1.30;;
8526;SDS011;4301;48.362;8.478;2022-09-09T00:02:54;1.80;;;1.20;;
8526;SDS011;4301;48.362;8.478;2022-09-09T00:05:29;3.00;;;1.30;;
8526;SDS011;4301;48.362;8.478;2022-09-09T00:08:02;3.80;;;1.40;;
8526;SDS011;4301;48.362;8.478;2022-09-09T00:10:31;7.97;;;1.50;;
8526;SDS011;4301;48.362;8.478;2022-09-09T00:13:06;3.40;;;1.40;;
8526;SDS011;4301;48.362;8.478;2022-09-09T00:15:45;4.93;;;1.87;;
8526;SDS011;4301;48.362;8.478;2022-09-09T00:18:23;1.50;;;1.23;;
8526;SDS011;4301;48.362;8.478;2022-09-09T00:20:55;2.10;;;1.40;;
8526;SDS011;4301;48.362;8.478;2022-09-09T00:23:28;2.13;;;1.30;;
8526;SDS011;4301;48.362;8.478;2022-09-09T00:26:02;4.07;;;1.40;;
8526;SDS011;4301;48.362;8.478;2022-09-09T00:28:35;2.33;;;1.23;;
8526;SDS011;4301;48.362;8.478;2022-09-09T00:31:11;3.37;;;1.73;;
8526;SDS011;4301;48.362;8.478;2022-09-09T00:33:39;2.27;;;1.50;;
8526;SDS011;4301;48.362;8.478;2022-09-09T00:36:09;4.77;;;1.53;;
8526;SDS011;4301;48.362;8.478;2022-09-09T00:38:42;1.97;;;1.30;;
8526;SDS011;4301;48.362;8.478;2022-09-09T00:41:13;1.30;;;1.20;;
8526;SDS011;4301;48.362;8.478;2022-09-09T00:43:51;3.00;;;1.17;;
8526;SDS011;4301;48.362;8.478;2022-09-09T00:46:44;2.70;;;1.60;;
8526;SDS011;4301;48.362;8.478;2022-09-09T00:49:21;4.27;;;1.80;;
8526;SDS011;4301;48.362;8.478;2022-09-09T00:51:59;4.10;;;1.30;;
8526;SDS011;4301;48.362;8.478;2022-09-09T00:54:38;4.40;;;1.43;;
8526;SDS011;4301;48.362;8.478;2022-09-09T00:57:21;5.97;;;1.70;;
8526;SDS011;4301;48.362;8.478;2022-09-09T00:59:56;1.83;;;1.50;;
8526;SDS011;4301;48.362;8.478;2022-09-09T01:02:35;2.70;;;1.43;;
8526;SDS011;4301;48.362;8.478;2022-09-09T01:05:12;3.10;;;1.43;;
8526;SDS011;4301;48.362;8.478;2022-09-09T01:07:44;3.93;;;1.57;;
8526;SDS011;4301;48.362;8.478;2022-09-09T01:10:17;2.63;;;1.37;;
8526;SDS011;4301;48.362;8.478;2022-09-09T01:12:52;2.17;;;1.50;;
8526;SDS011;4301;48.362;8.478;2022-09-09T01:15:24;6.93;;;1.50;;
8526;SDS011;4301;48.362;8.478;2022-09-09T01:17:57;6.50;;;1.30;;
8526;SDS011;4301;48.362;8.478;2022-09-09T01:20:31;2.30;;;1.50;;
8526;SDS011;4301;48.362;8.478;2022-09-09T01:23:23;1.57;;;1.47;;
8526;SDS011;4301;48.362;8.478;2022-09-09T01:26:13;2.03;;;1.70;;
8526;SDS011;4301;48.362;8.478;2022-09-09T01:28:44;2.57;;;1.43;;
8526;SDS011;4301;48.362;8.478;2022-09-09T01:31:17;4.00;;;1.60;;
8526;SDS011;4301;48.362;8.478;2022-09-09T01:33:46;4.67;;;1.40;;
8526;SDS011;4301;48.362;8.478;2022-09-09T01:36:13;4.27;;;1.70;;
8526;SDS011;4301;48.362;8.478;2022-09-09T01:38:51;2.87;;;1.90;;
8526;SDS011;4301;48.362;8.478;2022-09-09T01:41:20;3.87;;;1.60;;
8526;SDS011;4301;48.362;8.478;2022-09-09T01:43:47;1.70;;;1.60;;
8526;SDS011;4301;48.362;8.478;2022-09-09T01:46:15;2.50;;;1.60;;
8526;SDS011;4301;48.362;8.478;2022-09-09T01:48:43;1.77;;;1.67;;
8526;SDS011;4301;48.362;8.478;2022-09-09T01:51:11;2.60;;;1.60;;
8526;SDS011;4301;48.362;8.478;2022-09-09T01:53:39;4.67;;;1.70;;
8526;SDS011;4301;48.362;8.478;2022-09-09T01:56:12;1.70;;;1.43;;
8526;SDS011;4301;48.362;8.478;2022-09-09T01:58:54;1.83;;;1.60;;
8526;SDS011;4301;48.362;8.478;2022-09-09T02:01:33;1.73;;;1.60;;
8526;SDS011;4301;48.362;8.478;2022-09-09T02:04:11;4.97;;;1.73;;
8526;SDS011;4301;48.362;8.478;2022-09-09T02:06:48;1.37;;;1.37;;
8526;SDS011;4301;48.362;8.478;2022-09-09T02:09:19;2.60;;;1.60;;
8526;SDS011;4301;48.362;8.478;2022-09-09T02:11:49;3.47;;;1.53;;
8526;SDS011;4301;48.362;8.478;2022-09-09T02:14:27;1.27;;;1.20;;
8526;SDS011;4301;48.362;8.478;2022-09-09T02:16:57;1.90;;;1.20;;
8526;SDS011;4301;48.362;8.478;2022-09-09T02:19:29;7.60;;;1.67;;
8526;SDS011;4301;48.362;8.478;2022-09-09T02:22:01;3.53;;;1.57;;
8526;SDS011;4301;48.362;8.478;2022-09-09T02:24:29;3.07;;;1.73;;
8526;SDS011;4301;48.362;8.478;2022-09-09T02:26:59;1.90;;;1.47;;
8526;SDS011;4301;48.362;8.478;2022-09-09T02:29:33;3.27;;;1.43;;
8526;SDS011;4301;48.362;8.478;2022-09-09T02:32:03;1.40;;;1.30;;
8526;SDS011;4301;48.362;8.478;2022-09-09T02:34:33;6.43;;;1.43;;
8526;SDS011;4301;48.362;8.478;2022-09-09T02:37:04;3.50;;;1.40;;
8526;SDS011;4301;48.362;8.478;2022-09-09T02:39:34;2.00;;;1.60;;
8526;SDS011;4301;48.362;8.478;2022-09-09T02:42:01;1.93;;;1.60;;
8526;SDS011;4301;48.362;8.478;2022-09-09T02:44:30;3.53;;;1.40;;
8526;SDS011;4301;48.362;8.478;2022-09-09T02:47:03;3.77;;;1.40;;
8526;SDS011;4301;48.362;8.478;2022-09-09T02:49:43;3.77;;;1.70;;
8526;SDS011;4301;48.362;8.478;2022-09-09T02:52:25;2.83;;;1.70;;
8526;SDS011;4301;48.362;8.478;2022-09-09T02:54:59;2.00;;;1.33;;
8526;SDS011;4301;48.362;8.478;2022-09-09T02:57:33;3.17;;;2.00;;
8526;SDS011;4301;48.362;8.478;2022-09-09T03:00:02;1.50;;;1.40;;
8526;SDS011;4301;48.362;8.478;2022-09-09T03:02:31;2.70;;;1.37;;
8526;SDS011;4301;48.362;8.478;2022-09-09T03:04:58;3.70;;;1.53;;
8526;SDS011;4301;48.362;8.478;2022-09-09T03:07:26;2.20;;;1.50;;
8526;SDS011;4301;48.362;8.478;2022-09-09T03:09:53;1.37;;;1.20;;
8526;SDS011;4301;48.362;8.478;2022-09-09T03:12:20;1.53;;;1.30;;
8526;SDS011;4301;48.362;8.478;2022-09-09T03:14:48;3.97;;;1.50;;
8526;SDS011;4301;48.362;8.478;2022-09-09T03:17:15;1.50;;;1.33;;
8526;SDS011;4301;48.362;8.478;2022-09-09T03:19:44;2.17;;;1.30;;
8526;SDS011;4301;48.362;8.478;2022-09-09T03:22:11;2.53;;;1.40;;
8526;SDS011;4301;48.362;8.478;2022-09-09T03:24:38;2.53;;;1.30;;
8526;SDS011;4301;48.362;8.478;2022-09-09T03:27:05;2.20;;;1.30;;
8526;SDS011;4301;48.362;8.478;2022-09-09T03:29:32;1.83;;;1.30;;
8526;SDS011;4301;48.362;8.478;2022-09-09T03:31:59;1.60;;;1.33;;
8526;SDS011;4301;48.362;8.478;2022-09-09T03:34:27;1.50;;;1.40;;
8526;SDS011;4301;48.362;8.478;2022-09-09T03:36:55;1.77;;;1.30;;
8526;SDS011;4301;48.362;8.478;2022-09-09T03:39:22;1.53;;;1.40;;
8526;SDS011;4301;48.362;8.478;2022-09-09T03:41:49;3.10;;;1.47;;
8526;SDS011;4301;48.362;8.478;2022-09-09T03:44:17;1.57;;;1.47;;
8526;SDS011;4301;48.362;8.478;2022-09-09T03:46:44;1.50;;;1.40;;
8526;SDS011;4301;48.362;8.478;2022-09-09T03:49:11;1.50;;;1.40;;
8526;SDS011;4301;48.362;8.478;2022-09-09T03:51:38;2.50;;;1.40;;
8526;SDS011;4301;48.362;8.478;2022-09-09T03:54:07;2.63;;;1.40;;
8526;SDS011;4301;48.362;8.478;2022-09-09T03:56:35;1.93;;;1.20;;
8526;SDS011;4301;48.362;8.478;2022-09-09T03:59:03;2.33;;;1.40;;
8526;SDS011;4301;48.362;8.478;2022-09-09T04:01:30;1.87;;;1.40;;
8526;SDS011;4301;48.362;8.478;2022-09-09T04:03:58;4.00;;;1.40;;
8526;SDS011;4301;48.362;8.478;2022-09-09T04:06:27;1.50;;;1.40;;
8526;SDS011;4301;48.362;8.478;2022-09-09T04:08:55;2.03;;;1.30;;
8526;SDS011;4301;48.362;8.478;2022-09-09T04:11:23;2.03;;;1.50;;
8526;SDS011;4301;48.362;8.478;2022-09-09T04:13:50;1.57;;;1.30;;
8526;SDS011;4301;48.362;8.478;2022-09-09T04:16:17;1.40;;;1.30;;
8526;SDS011;4301;48.362;8.478;2022-09-09T04:18:45;2.23;;;1.50;;
8526;SDS011;4301;48.362;8.478;2022-09-09T04:21:12;3.43;;;1.70;;
8526;SDS011;4301;48.362;8.478;2022-09-09T04:23:40;2.77;;;1.70;;
8526;SDS011;4301;48.362;8.478;2022-09-09T04:26:08;1.60;;;1.50;;
8526;SDS011;4301;48.362;8.478;2022-09-09T04:28:37;2.93;;;1.50;;
8526;SDS011;4301;48.362;8.478;2022-09-09T04:31:04;2.20;;;1.30;;
8526;SDS011;4301;48.362;8.478;2022-09-09T04:33:32;2.80;;;1.63;;
8526;SDS011;4301;48.362;8.478;2022-09-09T04:36:00;1.47;;;1.20;;
8526;SDS011;4301;48.362;8.478;2022-09-09T04:38:27;2.13;;;1.87;;
8526;SDS011;4301;48.362;8.478;2022-09-09T04:40:54;3.93;;;1.73;;
8526;SDS011;4301;48.362;8.478;2022-09-09T04:43:22;1.87;;;1.73;;
8526;SDS011;4301;48.362;8.478;2022-09-09T04:45:52;2.23;;;1.70;;
8526;SDS011;4301;48.362;8.478;2022-09-09T04:48:20;5.03;;;1.80;;
8526;SDS011;4301;48.362;8.478;2022-09-09T04:50:54;4.07;;;1.70;;
8526;SDS011;4301;48.362;8.478;2022-09-09T04:53:22;2.00;;;1.43;;
8526;SDS011;4301;48.362;8.478;2022-09-09T04:55:50;2.67;;;1.70;;
8526;SDS011;4301;48.362;8.478;2022-09-09T04:58:17;3.50;;;1.30;;
8526;SDS011;4301;48.362;8.478;2022-09-09T05:00:46;3.35;;;1.67;;
8526;SDS011;4301;48.362;8.478;2022-09-09T05:03:15;1.87;;;1.50;;
8526;SDS011;4301;48.362;8.478;2022-09-09T05:05:42;1.73;;;1.40;;
8526;SDS011;4301;48.362;8.478;2022-09-09T05:08:09;1.63;;;1.53;;
8526;SDS011;4301;48.362;8.478;2022-09-09T05:10:37;1.57;;;1.40;;
8526;SDS011;4301;48.362;8.478;2022-09-09T05:13:07;2.63;;;1.57;;
8526;SDS011;4301;48.362;8.478;2022-09-09T05:15:34;5.57;;;1.63;;
8526;SDS011;4301;48.362;8.478;2022-09-09T05:18:01;3.63;;;1.50;;
8526;SDS011;4301;48.362;8.478;2022-09-09T05:20:30;2.13;;;1.40;;
8526;SDS011;4301;48.362;8.478;2022-09-09T05:22:58;2.93;;;1.50;;
8526;SDS011;4301;48.362;8.478;2022-09-09T05:25:25;2.50;;;1.50;;
8526;SDS011;4301;48.362;8.478;2022-09-09T05:27:52;4.30;;;1.57;;
8526;SDS011;4301;48.362;8.478;2022-09-09T05:30:20;2.50;;;1.70;;
8526;SDS011;4301;48.362;8.478;2022-09-09T05:32:47;4.00;;;1.67;;
8526;SDS011;4301;48.362;8.478;2022-09-09T05:35:15;5.87;;;1.70;;
8526;SDS011;4301;48.362;8.478;2022-09-09T05:37:45;2.33;;;1.30;;
8526;SDS011;4301;48.362;8.478;2022-09-09T05:40:13;2.90;;;1.20;;
8526;SDS011;4301;48.362;8.478;2022-09-09T05:42:40;1.70;;;1.40;;
8526;SDS011;4301;48.362;8.478;2022-09-09T05:45:08;2.37;;;1.57;;
8526;SDS011;4301;48.362;8.478;2022-09-09T05:47:36;2.13;;;1.37;;
8526;SDS011;4301;48.362;8.478;2022-09-09T05:50:03;3.23;;;1.43;;
8526;SDS011;4301;48.362;8.478;2022-09-09T05:52:32;1.60;;;1.47;;
8526;SDS011;4301;48.362;8.478;2022-09-09T05:55:00;1.33;;;1.23;;
8526;SDS011;4301;48.362;8.478;2022-09-09T05:57:29;1.50;;;1.40;;
8526;SDS011;4301;48.362;8.478;2022-09-09T05:59:56;1.70;;;1.47;;
8526;SDS011;4301;48.362;8.478;2022-09-09T06:02:24;2.37;;;1.40;;
8526;SDS011;4301;48.362;8.478;2022-09-09T06:04:51;2.00;;;1.50;;
8526;SDS011;4301;48.362;8.478;2022-09-09T06:07:19;2.27;;;1.47;;
8526;SDS011;4301;48.362;8.478;2022-09-09T06:09:46;2.13;;;1.70;;
8526;SDS011;4301;48.362;8.478;2022-09-09T06:12:15;3.23;;;1.40;;
8526;SDS011;4301;48.362;8.478;2022-09-09T06:14:42;1.40;;;1.40;;
8526;SDS011;4301;48.362;8.478;2022-09-09T06:17:09;2.33;;;1.53;;
8526;SDS011;4301;48.362;8.478;2022-09-09T06:19:36;1.70;;;1.50;;
8526;SDS011;4301;48.362;8.478;2022-09-09T06:22:04;2.57;;;1.40;;
8526;SDS011;4301;48.362;8.478;2022-09-09T06:24:31;1.93;;;1.50;;
8526;SDS011;4301;48.362;8.478;2022-09-09T06:26:58;1.60;;;1.50;;
8526;SDS011;4301;48.362;8.478;2022-09-09T06:29:26;2.73;;;1.30;;
8526;SDS011;4301;48.362;8.478;2022-09-09T06:31:54;4.67;;;1.73;;
8526;SDS011;4301;48.362;8.478;2022-09-09T06:34:21;5.67;;;1.67;;
8526;SDS011;4301;48.362;8.478;2022-09-09T06:36:48;4.47;;;1.70;;
8526;SDS011;4301;48.362;8.478;2022-09-09T06:39:16;1.40;;;1.30;;
8526;SDS011;4301;48.362;8.478;2022-09-09T06:41:43;1.80;;;1.60;;
8526;SDS011;4301;48.362;8.478;2022-09-09T06:44:10;3.27;;;1.67;;
8526;SDS011;4301;48.362;8.478;2022-09-09T06:46:39;1.90;;;1.40;;
8526;SDS011;4301;48.362;8.478;2022-09-09T06:49:07;1.43;;;1.33;;
8526;SDS011;4301;48.362;8.478;2022-09-09T06:51:35;2.30;;;1.40;;
8526;SDS011;4301;48.362;8.478;2022-09-09T06:54:07;2.73;;;1.40;;
8526;SDS011;4301;48.362;8.478;2022-09-09T06:56:35;3.07;;;1.30;;
8526;SDS011;4301;48.362;8.478;2022-09-09T06:59:06;3.93;;;1.70;;
8526;SDS011;4301;48.362;8.478;2022-09-09T07:01:34;3.67;;;1.33;;
8526;SDS011;4301;48.362;8.478;2022-09-09T07:04:04;4.27;;;1.40;;
8526;SDS011;4301;48.362;8.478;2022-09-09T07:06:33;4.53;;;1.67;;
8526;SDS011;4301;48.362;8.478;2022-09-09T07:09:02;2.67;;;1.70;;
8526;SDS011;4301;48.362;8.478;2022-09-09T07:11:30;4.43;;;1.40;;
8526;SDS011;4301;48.362;8.478;2022-09-09T07:13:59;1.50;;;1.40;;
8526;SDS011;4301;48.362;8.478;2022-09-09T07:16:27;1.87;;;1.33;;
8526;SDS011;4301;48.362;8.478;2022-09-09T07:18:56;2.73;;;1.40;;
8526;SDS011;4301;48.362;8.478;2022-09-09T07:21:26;4.80;;;1.70;;
8526;SDS011;4301;48.362;8.478;2022-09-09T07:23:54;3.40;;;1.50;;
8526;SDS011;4301;48.362;8.478;2022-09-09T07:26:22;6.87;;;1.27;;
8526;SDS011;4301;48.362;8.478;2022-09-09T07:28:50;5.37;;;1.83;;
8526;SDS011;4301;48.362;8.478;2022-09-09T07:31:18;3.70;;;1.33;;
8526;SDS011;4301;48.362;8.478;2022-09-09T07:33:46;4.70;;;1.30;;
8526;SDS011;4301;48.362;8.478;2022-09-09T07:36:15;3.03;;;1.47;;
8526;SDS011;4301;48.362;8.478;2022-09-09T07:38:45;4.33;;;1.80;;
8526;SDS011;4301;48.362;8.478;2022-09-09T07:41:14;2.77;;;1.60;;
8526;SDS011;4301;48.362;8.478;2022-09-09T07:43:44;3.20;;;1.77;;
8526;SDS011;4301;48.362;8.478;2022-09-09T07:46:13;2.77;;;1.80;;
8526;SDS011;4301;48.362;8.478;2022-09-09T07:48:43;4.03;;;1.87;;
8526;SDS011;4301;48.362;8.478;2022-09-09T07:51:11;2.33;;;1.40;;
8526;SDS011;4301;48.362;8.478;2022-09-09T07:53:45;3.67;;;1.60;;
8526;SDS011;4301;48.362;8.478;2022-09-09T07:56:14;4.47;;;1.83;;
8526;SDS011;4301;48.362;8.478;2022-09-09T07:58:42;5.33;;;1.87;;
8526;SDS011;4301;48.362;8.478;2022-09-09T08:01:12;4.50;;;1.93;;
8526;SDS011;4301;48.362;8.478;2022-09-09T08:03:43;2.07;;;1.43;;
8526;SDS011;4301;48.362;8.478;2022-09-09T08:06:10;2.17;;;1.70;;
8526;SDS011;4301;48.362;8.478;2022-09-09T08:08:39;6.20;;;1.97;;
8526;SDS011;4301;48.362;8.478;2022-09-09T08:11:10;3.90;;;1.60;;
8526;SDS011;4301;48.362;8.478;2022-09-09T08:13:39;5.57;;;1.40;;
8526;SDS011;4301;48.362;8.478;2022-09-09T08:16:08;3.83;;;1.70;;
8526;SDS011;4301;48.362;8.478;2022-09-09T08:18:37;4.90;;;1.70;;
8526;SDS011;4301;48.362;8.478;2022-09-09T08:21:08;4.67;;;1.47;;
8526;SDS011;4301;48.362;8.478;2022-09-09T08:23:38;2.63;;;1.40;;
8526;SDS011;4301;48.362;8.478;2022-09-09T08:26:06;4.10;;;1.27;;
8526;SDS011;4301;48.362;8.478;2022-09-09T08:28:37;3.00;;;1.30;;
8526;SDS011;4301;48.362;8.478;2022-09-09T08:31:06;4.07;;;1.40;;
8526;SDS011;4301;48.362;8.478;2022-09-09T08:33:37;4.37;;;1.50;;
8526;SDS011;4301;48.362;8.478;2022-09-09T08:36:05;3.00;;;1.20;;
8526;SDS011;4301;48.362;8.478;2022-09-09T08:38:34;2.33;;;1.30;;
8526;SDS011;4301;48.362;8.478;2022-09-09T08:41:08;2.57;;;1.30;;
8526;SDS011;4301;48.362;8.478;2022-09-09T08:43:46;5.27;;;1.40;;
8526;SDS011;4301;48.362;8.478;2022-09-09T08:46:15;3.33;;;1.30;;
8526;SDS011;4301;48.362;8.478;2022-09-09T08:48:48;1.98;;;1.05;;
8526;SDS011;4301;48.362;8.478;2022-09-09T08:51:24;2.13;;;1.30;;
8526;SDS011;4301;48.362;8.478;2022-09-09T08:53:54;3.90;;;1.30;;
8526;SDS011;4301;48.362;8.478;2022-09-09T08:56:26;2.90;;;1.20;;
8526;SDS011;4301;48.362;8.478;2022-09-09T08:58:58;4.43;;;1.27;;
8526;SDS011;4301;48.362;8.478;2022-09-09T09:01:35;2.88;;;1.42;;
8526;SDS011;4301;48.362;8.478;2022-09-09T09:04:13;1.30;;;1.20;;
8526;SDS011;4301;48.362;8.478;2022-09-09T09:06:55;3.03;;;1.15;;
8526;SDS011;4301;48.362;8.478;2022-09-09T09:09:31;4.28;;;1.20;;
8526;SDS011;4301;48.362;8.478;2022-09-09T09:12:13;2.20;;;1.10;;
8526;SDS011;4301;48.362;8.478;2022-09-09T09:14:42;2.88;;;1.35;;
8526;SDS011;4301;48.362;8.478;2022-09-09T09:17:12;4.20;;;1.00;;
8526;SDS011;4301;48.362;8.478;2022-09-09T09:19:42;2.50;;;1.10;;
8526;SDS011;4301;48.362;8.478;2022-09-09T09:22:14;2.42;;;0.90;;
8526;SDS011;4301;48.362;8.478;2022-09-09T09:24:47;4.47;;;1.50;;
8526;SDS011;4301;48.362;8.478;2022-09-09T09:27:25;4.00;;;1.20;;
8526;SDS011;4301;48.362;8.478;2022-09-09T09:29:57;3.10;;;1.10;;
8526;SDS011;4301;48.362;8.478;2022-09-09T09:32:26;1.75;;;1.05;;
8526;SDS011;4301;48.362;8.478;2022-09-09T09:35:01;5.20;;;1.33;;
8526;SDS011;4301;48.362;8.478;2022-09-09T09:37:31;2.13;;;0.98;;
8526;SDS011;4301;48.362;8.478;2022-09-09T09:40:10;2.58;;;1.10;;
8526;SDS011;4301;48.362;8.478;2022-09-09T09:42:46;2.17;;;1.10;;
8526;SDS011;4301;48.362;8.478;2022-09-09T09:45:16;2.55;;;1.00;;
8526;SDS011;4301;48.362;8.478;2022-09-09T09:47:57;2.22;;;1.13;;
8526;SDS011;4301;48.362;8.478;2022-09-09T09:50:25;1.95;;;1.05;;
8526;SDS011;4301;48.362;8.478;2022-09-09T09:52:55;2.30;;;1.10;;
8526;SDS011;4301;48.362;8.478;2022-09-09T09:55:23;1.48;;;1.10;;
8526;SDS011;4301;48.362;8.478;2022-09-09T09:57:54;1.88;;;0.90;;
8526;SDS011;4301;48.362;8.478;2022-09-09T10:00:28;4.78;;;1.23;;
8526;SDS011;4301;48.362;8.478;2022-09-09T10:02:55;1.30;;;0.90;;
8526;SDS011;4301;48.362;8.478;2022-09-09T10:05:23;2.28;;;0.90;;
8526;SDS011;4301;48.362;8.478;2022-09-09T10:08:01;1.50;;;0.90;;
8526;SDS011;4301;48.362;8.478;2022-09-09T10:10:34;2.90;;;1.08;;
8526;SDS011;4301;48.362;8.478;2022-09-09T10:13:18;2.17;;;1.17;;
8526;SDS011;4301;48.362;8.478;2022-09-09T10:15:52;3.80;;;1.02;;
8526;SDS011;4301;48.362;8.478;2022-09-09T10:18:35;2.58;;;1.00;;
8526;SDS011;4301;48.362;8.478;2022-09-09T10:21:09;2.00;;;0.90;;
8526;SDS011;4301;48.362;8.478;2022-09-09T10:23:52;1.75;;;1.20;;
8526;SDS011;4301;48.362;8.478;2022-09-09T10:26:34;2.38;;;0.90;;
8526;SDS011;4301;48.362;8.478;2022-09-09T10:29:13;4.07;;;1.20;;
8526;SDS011;4301;48.362;8.478;2022-09-09T10:31:54;2.53;;;1.10;;
8526;SDS011;4301;48.362;8.478;2022-09-09T10:34:41;1.20;;;0.90;;
8526;SDS011;4301;48.362;8.478;2022-09-09T10:37:22;1.57;;;0.90;;
8526;SDS011;4301;48.362;8.478;2022-09-09T10:40:00;0.73;;;0.70;;
8526;SDS011;4301;48.362;8.478;2022-09-09T10:42:31;0.97;;;0.77;;
8526;SDS011;4301;48.362;8.478;2022-09-09T10:45:04;1.07;;;0.70;;
8526;SDS011;4301;48.362;8.478;2022-09-09T10:50:50;1.77;;;0.90;;
8526;SDS011;4301;48.362;8.478;2022-09-09T10:53:24;1.15;;;0.65;;
8526;SDS011;4301;48.362;8.478;2022-09-09T10:56:01;1.77;;;0.70;;
8526;SDS011;4301;48.362;8.478;2022-09-09T10:58:33;1.70;;;0.80;;
8526;SDS011;4301;48.362;8.478;2022-09-09T11:01:09;1.20;;;0.90;;
8526;SDS011;4301;48.362;8.478;2022-09-09T11:03:41;1.08;;;0.80;;
8526;SDS011;4301;48.362;8.478;2022-09-09T11:06:11;2.70;;;1.10;;
8526;SDS011;4301;48.362;8.478;2022-09-09T11:08:41;2.63;;;0.82;;
8526;SDS011;4301;48.362;8.478;2022-09-09T11:11:09;0.82;;;0.80;;
8526;SDS011;4301;48.362;8.478;2022-09-09T11:13:44;1.20;;;0.80;;
8526;SDS011;4301;48.362;8.478;2022-09-09T11:16:20;4.25;;;1.33;;
8526;SDS011;4301;48.362;8.478;2022-09-09T11:18:55;2.35;;;1.10;;
8526;SDS011;4301;48.362;8.478;2022-09-09T11:21:27;1.55;;;0.90;;
8526;SDS011;4301;48.362;8.478;2022-09-09T11:23:59;2.78;;;1.05;;
8526;SDS011;4301;48.362;8.478;2022-09-09T11:26:30;1.48;;;1.10;;
8526;SDS011;4301;48.362;8.478;2022-09-09T11:29:10;1.85;;;1.00;;
8526;SDS011;4301;48.362;8.478;2022-09-09T11:31:53;1.88;;;1.10;;
8526;SDS011;4301;48.362;8.478;2022-09-09T11:34:35;1.90;;;1.10;;
8526;SDS011;4301;48.362;8.478;2022-09-09T11:37:17;3.15;;;1.35;;
8526;SDS011;4301;48.362;8.478;2022-09-09T11:40:16;2.58;;;1.27;;
8526;SDS011;4301;48.362;8.478;2022-09-09T11:42:48;4.35;;;1.40;;
8526;SDS011;4301;48.362;8.478;2022-09-09T11:45:20;4.25;;;1.25;;
8526;SDS011;4301;48.362;8.478;2022-09-09T11:47:56;2.05;;;1.10;;
8526;SDS011;4301;48.362;8.478;2022-09-09T11:50:31;2.17;;;1.05;;
8526;SDS011;4301;48.362;8.478;2022-09-09T11:53:05;1.57;;;1.00;;
8526;SDS011;4301;48.362;8.478;2022-09-09T11:55:46;2.17;;;1.00;;
8526;SDS011;4301;48.362;8.478;2022-09-09T11:58:17;1.77;;;1.03;;
8526;SDS011;4301;48.362;8.478;2022-09-09T12:00:46;2.92;;;1.20;;
8526;SDS011;4301;48.362;8.478;2022-09-09T12:06:11;2.40;;;1.08;;
8526;SDS011;4301;48.362;8.478;2022-09-09T12:08:42;3.97;;;1.25;;
8526;SDS011;4301;48.362;8.478;2022-09-09T12:11:11;2.10;;;1.25;;
8526;SDS011;4301;48.362;8.478;2022-09-09T12:13:52;2.35;;;1.13;;
8526;SDS011;4301;48.362;8.478;2022-09-09T12:16:31;1.77;;;0.98;;
8526;SDS011;4301;48.362;8.478;2022-09-09T12:19:05;3.70;;;1.58;;
8526;SDS011;4301;48.362;8.478;2022-09-09T12:21:42;3.67;;;1.13;;
8526;SDS011;4301;48.362;8.478;2022-09-09T12:24:16;3.05;;;1.30;;
8526;SDS011;4301;48.362;8.478;2022-09-09T12:26:52;3.97;;;1.45;;
8526;SDS011;4301;48.362;8.478;2022-09-09T12:29:25;3.17;;;1.40;;
8526;SDS011;4301;48.362;8.478;2022-09-09T12:32:00;3.45;;;1.30;;
8526;SDS011;4301;48.362;8.478;2022-09-09T12:34:34;1.98;;;1.20;;
8526;SDS011;4301;48.362;8.478;2022-09-09T12:37:08;2.50;;;1.00;;
8526;SDS011;4301;48.362;8.478;2022-09-09T12:39:49;2.47;;;1.02;;
8526;SDS011;4301;48.362;8.478;2022-09-09T12:42:20;2.13;;;1.00;;
8526;SDS011;4301;48.362;8.478;2022-09-09T12:44:52;3.20;;;1.35;;
8526;SDS011;4301;48.362;8.478;2022-09-09T12:47:20;4.07;;;1.25;;
8526;SDS011;4301;48.362;8.478;2022-09-09T12:49:53;2.47;;;1.20;;
8526;SDS011;4301;48.362;8.478;2022-09-09T12:52:23;1.80;;;1.20;;
8526;SDS011;4301;48.362;8.478;2022-09-09T12:54:55;2.10;;;1.15;;
8526;SDS011;4301;48.362;8.478;2022-09-09T12:57:23;2.17;;;1.17;;
8526;SDS011;4301;48.362;8.478;2022-09-09T12:59:52;1.75;;;1.20;;
8526;SDS011;4301;48.362;8.478;2022-09-09T13:02:30;2.50;;;1.38;;
8526;SDS011;4301;48.362;8.478;2022-09-09T13:05:09;1.95;;;1.20;;
8526;SDS011;4301;48.362;8.478;2022-09-09T13:07:42;1.92;;;0.95;;
8526;SDS011;4301;48.362;8.478;2022-09-09T13:10:10;3.45;;;1.08;;
8526;SDS011;4301;48.362;8.478;2022-09-09T13:12:39;2.58;;;1.00;;
8526;SDS011;4301;48.362;8.478;2022-09-09T13:15:19;1.60;;;1.00;;
8526;SDS011;4301;48.362;8.478;2022-09-09T13:17:50;3.28;;;0.93;;
8526;SDS011;4301;48.362;8.478;2022-09-09T13:20:21;3.55;;;1.10;;
8526;SDS011;4301;48.362;8.478;2022-09-09T13:22:50;1.27;;;0.95;;
8526;SDS011;4301;48.362;8.478;2022-09-09T13:25:20;2.53;;;0.90;;
8526;SDS011;4301;48.362;8.478;2022-09-09T13:28:00;3.83;;;1.08;;
8526;SDS011;4301;48.362;8.478;2022-09-09T13:30:29;1.17;;;0.90;;
8526;SDS011;4301;48.362;8.478;2022-09-09T13:33:03;1.83;;;0.98;;
8526;SDS011;4301;48.362;8.478;2022-09-09T13:35:50;2.38;;;0.90;;
8526;SDS011;4301;48.362;8.478;2022-09-09T13:38:19;2.20;;;1.00;;
8526;SDS011;4301;48.362;8.478;2022-09-09T13:40:54;1.83;;;1.00;;
8526;SDS011;4301;48.362;8.478;2022-09-09T13:43:24;2.15;;;0.80;;
8526;SDS011;4301;48.362;8.478;2022-09-09T13:45:53;1.10;;;1.00;;
8526;SDS011;4301;48.362;8.478;2022-09-09T13:48:23;4.93;;;1.23;;
8526;SDS011;4301;48.362;8.478;2022-09-09T13:50:55;1.63;;;0.90;;
8526;SDS011;4301;48.362;8.478;2022-09-09T13:53:23;1.95;;;1.10;;
8526;SDS011;4301;48.362;8.478;2022-09-09T13:55:51;2.70;;;1.20;;
8526;SDS011;4301;48.362;8.478;2022-09-09T13:58:18;1.65;;;0.98;;
8526;SDS011;4301;48.362;8.478;2022-09-09T14:00:46;3.47;;;1.02;;
8526;SDS011;4301;48.362;8.478;2022-09-09T14:03:15;2.80;;;1.10;;
8526;SDS011;4301;48.362;8.478;2022-09-09T14:05:42;5.00;;;1.02;;
8526;SDS011;4301;48.362;8.478;2022-09-09T14:08:14;2.38;;;1.15;;
8526;SDS011;4301;48.362;8.478;2022-09-09T14:10:48;2.03;;;1.00;;
8526;SDS011;4301;48.362;8.478;2022-09-09T14:13:15;3.13;;;1.30;;
8526;SDS011;4301;48.362;8.478;2022-09-09T14:15:42;2.78;;;0.93;;
8526;SDS011;4301;48.362;8.478;2022-09-09T14:18:11;2.05;;;0.90;;
8526;SDS011;4301;48.362;8.478;2022-09-09T14:20:39;4.38;;;0.90;;
8526;SDS011;4301;48.362;8.478;2022-09-09T14:23:09;1.27;;;0.80;;
8526;SDS011;4301;48.362;8.478;2022-09-09T14:25:41;2.55;;;0.82;;
8526;SDS011;4301;48.362;8.478;2022-09-09T14:28:09;2.13;;;0.70;;
8526;SDS011;4301;48.362;8.478;2022-09-09T14:30:38;6.30;;;1.20;;
8526;SDS011;4301;48.362;8.478;2022-09-09T14:33:06;2.10;;;0.93;;
8526;SDS011;4301;48.362;8.478;2022-09-09T14:35:34;3.63;;;1.25;;
8526;SDS011;4301;48.362;8.478;2022-09-09T14:38:02;2.58;;;0.70;;
8526;SDS011;4301;48.362;8.478;2022-09-09T14:40:31;1.13;;;0.90;;
8526;SDS011;4301;48.362;8.478;2022-09-09T14:43:00;1.70;;;0.80;;
8526;SDS011;4301;48.362;8.478;2022-09-09T14:45:27;0.95;;;0.60;;
8526;SDS011;4301;48.362;8.478;2022-09-09T14:47:54;0.95;;;0.60;;
8526;SDS011;4301;48.362;8.478;2022-09-09T14:50:22;3.63;;;0.82;;
8526;SDS011;4301;48.362;8.478;2022-09-09T14:52:50;1.08;;;0.75;;
8526;SDS011;4301;48.362;8.478;2022-09-09T14:55:17;1.23;;;0.70;;
8526;SDS011;4301;48.362;8.478;2022-09-09T14:57:46;0.70;;;0.50;;
8526;SDS011;4301;48.362;8.478;2022-09-09T15:00:13;0.80;;;0.60;;
8526;SDS011;4301;48.362;8.478;2022-09-09T15:02:41;1.47;;;0.60;;
8526;SDS011;4301;48.362;8.478;2022-09-09T15:05:08;1.53;;;0.70;;
8526;SDS011;4301;48.362;8.478;2022-09-09T15:07:35;0.67;;;0.67;;
8526;SDS011;4301;48.362;8.478;2022-09-09T15:10:03;1.73;;;0.70;;
8526;SDS011;4301;48.362;8.478;2022-09-09T15:12:31;1.60;;;0.70;;
8526;SDS011;4301;48.362;8.478;2022-09-09T15:15:02;1.02;;;0.60;;
8526;SDS011;4301;48.362;8.478;2022-09-09T15:17:30;1.50;;;0.70;;
8526;SDS011;4301;48.362;8.478;2022-09-09T15:19:57;1.40;;;0.73;;
8526;SDS011;4301;48.362;8.478;2022-09-09T15:22:24;2.43;;;0.77;;
8526;SDS011;4301;48.362;8.478;2022-09-09T15:24:51;2.00;;;0.80;;
8526;SDS011;4301;48.362;8.478;2022-09-09T15:27:19;1.53;;;0.70;;
8526;SDS011;4301;48.362;8.478;2022-09-09T15:29:46;0.90;;;0.80;;
8526;SDS011;4301;48.362;8.478;2022-09-09T15:32:14;1.80;;;0.60;;
8526;SDS011;4301;48.362;8.478;2022-09-09T15:34:41;1.73;;;0.80;;
8526;SDS011;4301;48.362;8.478;2022-09-09T15:37:09;1.07;;;0.50;;
8526;SDS011;4301;48.362;8.478;2022-09-09T15:39:39;4.17;;;0.90;;
8526;SDS011;4301;48.362;8.478;2022-09-09T15:42:06;1.03;;;0.97;;
8526;SDS011;4301;48.362;8.478;2022-09-09T15:44:39;1.10;;;0.73;;